createdAt,value
2023-02-19T00:00:26.213Z,1010.17
2023-02-19T00:01:26.354Z,1010.16
2023-02-19T00:02:26.564Z,1010.18
2023-02-19T00:03:26.735Z,1010.25
2023-02-19T00:04:26.776Z,1010.18
2023-02-19T00:05:26.986Z,1010.19
2023-02-19T00:06:27.035Z,1010.25
2023-02-19T00:07:27.170Z,1010.16
2023-02-19T00:08:27.269Z,1010.20
2023-02-19T00:09:27.416Z,1010.21
2023-02-19T00:10:27.570Z,1010.19
2023-02-19T00:11:27.701Z,1010.20
2023-02-19T00:12:27.832Z,1010.26
2023-02-19T00:13:27.971Z,1010.18
2023-02-19T00:14:28.069Z,1010.21
2023-02-19T00:15:28.248Z,1010.23
2023-02-19T00:16:28.315Z,1010.11
2023-02-19T00:17:28.458Z,1010.13
2023-02-19T00:18:28.562Z,1010.07
2023-02-19T00:19:28.721Z,1010.19
2023-02-19T00:20:28.807Z,1010.12
2023-02-19T00:21:28.944Z,1010.14
2023-02-19T00:22:29.079Z,1010.12
2023-02-19T00:23:29.210Z,1010.15
2023-02-19T00:24:30.395Z,1010.10
2023-02-19T00:25:29.483Z,1010.11
2023-02-19T00:26:29.600Z,1010.10
2023-02-19T00:27:30.716Z,1010.06
2023-02-19T00:28:29.888Z,1010.10
2023-02-19T00:29:30.028Z,1010.04
2023-02-19T00:30:30.217Z,1010.10
2023-02-19T00:31:32.643Z,1010.10
2023-02-19T00:32:30.464Z,1010.07
2023-02-19T00:33:30.589Z,1010.01
2023-02-19T00:34:30.722Z,1010.12
2023-02-19T00:35:30.865Z,1010.11
2023-02-19T00:36:31.038Z,1010.07
2023-02-19T00:37:31.128Z,1010.00
2023-02-19T00:38:31.382Z,1010.12
2023-02-19T00:39:31.382Z,1010.12
2023-02-19T00:40:31.531Z,1010.13
2023-02-19T00:41:31.656Z,1010.08
2023-02-19T00:42:31.790Z,1010.03
2023-02-19T00:43:31.943Z,1010.12
2023-02-19T00:44:32.031Z,1010.05
2023-02-19T00:45:32.158Z,1010.06
2023-02-19T00:46:32.320Z,1009.99
2023-02-19T00:47:32.421Z,1010.10
2023-02-19T00:48:32.612Z,1010.05
2023-02-19T00:49:32.709Z,1010.07
2023-02-19T00:50:32.831Z,1010.10
2023-02-19T00:51:32.983Z,1010.08
2023-02-19T00:52:33.106Z,1010.09
2023-02-19T00:53:33.244Z,1010.09
2023-02-19T00:54:33.340Z,1010.06
2023-02-19T00:55:33.537Z,1010.02
2023-02-19T00:56:33.595Z,1009.96
2023-02-19T00:57:33.747Z,1010.02
2023-02-19T00:58:33.844Z,1010.03
2023-02-19T00:59:33.962Z,1009.99
2023-02-19T01:00:34.114Z,1009.98
2023-02-19T01:01:34.251Z,1009.98
2023-02-19T01:02:34.372Z,1010.13
2023-02-19T01:03:34.500Z,1010.09
2023-02-19T01:04:34.657Z,1010.04
2023-02-19T01:05:34.801Z,1010.04
2023-02-19T01:06:34.949Z,1010.02
2023-02-19T01:07:35.048Z,1010.11
2023-02-19T01:08:35.179Z,1010.09
2023-02-19T01:09:35.320Z,1010.09
2023-02-19T01:10:35.422Z,1010.10
2023-02-19T01:11:35.566Z,1010.06
2023-02-19T01:12:35.705Z,1010.03
2023-02-19T01:13:35.851Z,1009.98
2023-02-19T01:14:35.972Z,1010.05
2023-02-19T01:15:36.116Z,1010.00
2023-02-19T01:16:36.213Z,1010.11
2023-02-19T01:17:36.386Z,1010.13
2023-02-19T01:18:36.462Z,1010.10
2023-02-19T01:19:36.592Z,1010.08
2023-02-19T01:20:36.733Z,1010.11
2023-02-19T01:21:36.885Z,1010.05
2023-02-19T01:22:36.994Z,1010.02
2023-02-19T01:23:37.091Z,1010.09
2023-02-19T01:24:37.243Z,1010.08
2023-02-19T01:25:37.394Z,1010.03
2023-02-19T01:26:37.522Z,1009.95
2023-02-19T01:27:37.660Z,1009.97
2023-02-19T01:28:37.796Z,1009.97
2023-02-19T01:29:37.942Z,1010.05
2023-02-19T01:30:38.034Z,1010.07
2023-02-19T01:31:38.320Z,1010.01
2023-02-19T01:32:38.371Z,1010.09
2023-02-19T01:33:38.450Z,1010.04
2023-02-19T01:34:38.589Z,1010.03
2023-02-19T01:35:38.698Z,1010.08
2023-02-19T01:36:39.579Z,1010.06
2023-02-19T01:37:38.986Z,1010.03
2023-02-19T01:38:39.111Z,1010.09
2023-02-19T01:39:39.325Z,1010.06
2023-02-19T01:40:39.447Z,1010.12
2023-02-19T01:41:39.550Z,1010.07
2023-02-19T01:42:39.592Z,1010.10
2023-02-19T01:43:39.734Z,1010.09
2023-02-19T01:44:39.894Z,1010.13
2023-02-19T01:45:40.052Z,1010.06
2023-02-19T01:46:40.252Z,1010.09
2023-02-19T01:47:40.377Z,1010.12
2023-02-19T01:48:40.542Z,1010.08
2023-02-19T01:49:40.641Z,1010.10
2023-02-19T01:50:40.889Z,1010.08
2023-02-19T01:51:40.926Z,1010.13
2023-02-19T01:52:41.075Z,1010.06
2023-02-19T01:53:41.214Z,1010.09
2023-02-19T01:54:41.374Z,1010.09
2023-02-19T01:55:41.537Z,1010.12
2023-02-19T01:56:41.625Z,1010.08
2023-02-19T01:57:41.794Z,1010.05
2023-02-19T01:58:41.940Z,1010.12
2023-02-19T01:59:42.104Z,1010.12
2023-02-19T02:00:42.291Z,1010.08
2023-02-19T02:01:42.382Z,1010.13
2023-02-19T02:02:42.489Z,1010.09
2023-02-19T02:03:42.630Z,1010.10
2023-02-19T02:04:42.738Z,1010.09
2023-02-19T02:05:42.872Z,1010.06
2023-02-19T02:06:43.012Z,1010.15
2023-02-19T02:07:43.113Z,1010.11
2023-02-19T02:08:43.249Z,1010.07
2023-02-19T02:09:43.381Z,1010.10
2023-02-19T02:10:43.525Z,1010.13
2023-02-19T02:11:43.702Z,1010.17
2023-02-19T02:12:43.844Z,1010.12
2023-02-19T02:13:43.980Z,1010.15
2023-02-19T02:14:44.118Z,1010.19
2023-02-19T02:15:44.257Z,1010.16
2023-02-19T02:16:44.384Z,1010.08
2023-02-19T02:17:44.515Z,1010.15
2023-02-19T02:18:44.643Z,1010.10
2023-02-19T02:19:44.784Z,1010.10
2023-02-19T02:20:44.917Z,1010.07
2023-02-19T02:21:45.044Z,1010.07
2023-02-19T02:22:45.172Z,1010.16
2023-02-19T02:23:45.305Z,1010.09
2023-02-19T02:24:45.419Z,1010.21
2023-02-19T02:25:45.560Z,1010.23
2023-02-19T02:26:45.648Z,1010.10
2023-02-19T02:27:45.783Z,1010.21
2023-02-19T02:28:45.943Z,1010.16
2023-02-19T02:29:46.095Z,1010.12
2023-02-19T02:30:46.251Z,1010.16
2023-02-19T02:31:46.511Z,1010.13
2023-02-19T02:32:46.597Z,1010.14
2023-02-19T02:33:46.787Z,1010.12
2023-02-19T02:34:46.904Z,1010.12
2023-02-19T02:35:47.055Z,1010.10
2023-02-19T02:36:47.196Z,1010.12
2023-02-19T02:37:47.334Z,1010.09
2023-02-19T02:38:47.474Z,1010.06
2023-02-19T02:39:47.599Z,1010.09
2023-02-19T02:40:47.717Z,1010.16
2023-02-19T02:41:47.834Z,1010.18
2023-02-19T02:42:47.970Z,1010.11
2023-02-19T02:43:48.093Z,1010.08
2023-02-19T02:44:48.212Z,1010.16
2023-02-19T02:45:48.451Z,1010.10
2023-02-19T02:46:48.489Z,1009.97
2023-02-19T02:47:48.618Z,1010.07
2023-02-19T02:48:48.745Z,1010.13
2023-02-19T02:49:48.917Z,1010.05
2023-02-19T02:50:49.021Z,1010.16
2023-02-19T02:51:49.141Z,1010.16
2023-02-19T02:52:49.281Z,1010.18
2023-02-19T02:53:49.435Z,1010.17
2023-02-19T02:54:49.556Z,1010.17
2023-02-19T02:55:49.681Z,1010.20
2023-02-19T02:56:49.843Z,1010.15
2023-02-19T02:57:49.974Z,1010.20
2023-02-19T02:58:50.122Z,1010.15
2023-02-19T02:59:50.263Z,1010.15
2023-02-19T03:00:50.432Z,1010.19
2023-02-19T03:01:50.627Z,1010.17
2023-02-19T03:02:50.736Z,1010.16
2023-02-19T03:03:50.909Z,1010.20
2023-02-19T03:04:50.964Z,1010.16
2023-02-19T03:05:51.090Z,1010.25
2023-02-19T03:06:51.211Z,1010.18
2023-02-19T03:07:51.332Z,1010.24
2023-02-19T03:08:51.464Z,1010.24
2023-02-19T03:09:51.610Z,1010.24
2023-02-19T03:10:51.748Z,1010.26
2023-02-19T03:11:51.868Z,1010.37
2023-02-19T03:12:51.997Z,1010.31
2023-02-19T03:13:52.122Z,1010.25
2023-02-19T03:14:52.210Z,1010.24
2023-02-19T03:15:52.344Z,1010.29
2023-02-19T03:16:52.543Z,1010.33
2023-02-19T03:17:52.601Z,1010.26
2023-02-19T03:18:52.730Z,1010.28
2023-02-19T03:19:52.861Z,1010.35
2023-02-19T03:20:52.991Z,1010.39
2023-02-19T03:21:53.126Z,1010.44
2023-02-19T03:22:53.249Z,1010.44
2023-02-19T03:23:53.419Z,1010.49
2023-02-19T03:24:53.472Z,1010.51
2023-02-19T03:25:53.598Z,1010.53
2023-02-19T03:26:53.718Z,1010.56
2023-02-19T03:27:53.852Z,1010.50
2023-02-19T03:28:54.020Z,1010.52
2023-02-19T03:29:54.166Z,1010.37
2023-02-19T03:30:54.299Z,1010.41
2023-02-19T03:31:54.555Z,1010.41
2023-02-19T03:32:54.528Z,1010.47
2023-02-19T03:33:54.665Z,1010.45
2023-02-19T03:34:54.812Z,1010.44
2023-02-19T03:35:54.954Z,1010.48
2023-02-19T03:36:55.113Z,1010.46
2023-02-19T03:37:55.250Z,1010.42
2023-02-19T03:38:55.344Z,1010.49
2023-02-19T03:39:55.466Z,1010.54
2023-02-19T03:40:55.575Z,1010.50
2023-02-19T03:41:55.727Z,1010.51
2023-02-19T03:42:56.266Z,1010.56
2023-02-19T03:43:56.032Z,1010.53
2023-02-19T03:44:56.154Z,1010.58
2023-02-19T03:45:56.302Z,1010.53
2023-02-19T03:46:56.438Z,1010.65
2023-02-19T03:47:56.594Z,1010.62
2023-02-19T03:48:56.725Z,1010.61
2023-02-19T03:49:56.854Z,1010.61
2023-02-19T03:50:56.984Z,1010.62
2023-02-19T03:51:57.106Z,1010.70
2023-02-19T03:52:57.224Z,1010.67
2023-02-19T03:53:57.375Z,1010.64
2023-02-19T03:54:57.464Z,1010.69
2023-02-19T03:55:57.577Z,1010.57
2023-02-19T03:56:57.708Z,1010.62
2023-02-19T03:57:57.826Z,1010.66
2023-02-19T03:58:57.959Z,1010.68
2023-02-19T03:59:58.086Z,1010.66
2023-02-19T04:00:58.238Z,1010.66
2023-02-19T04:01:58.412Z,1010.78
2023-02-19T04:02:58.542Z,1010.72
2023-02-19T04:03:58.707Z,1010.76
2023-02-19T04:04:58.951Z,1010.75
2023-02-19T04:05:58.917Z,1010.73
2023-02-19T04:06:59.051Z,1010.76
2023-02-19T04:07:59.160Z,1010.75
2023-02-19T04:08:59.300Z,1010.73
2023-02-19T04:09:59.450Z,1010.75
2023-02-19T04:10:59.573Z,1010.79
2023-02-19T04:11:59.691Z,1010.78
2023-02-19T04:12:59.837Z,1010.81
2023-02-19T04:14:00.117Z,1010.79
2023-02-19T04:15:00.154Z,1010.87
2023-02-19T04:16:00.247Z,1010.84
2023-02-19T04:17:00.376Z,1010.90
2023-02-19T04:18:00.497Z,1010.86
2023-02-19T04:19:00.647Z,1010.84
2023-02-19T04:20:00.763Z,1011.00
2023-02-19T04:21:00.891Z,1010.89
2023-02-19T04:22:01.028Z,1010.96
2023-02-19T04:23:01.182Z,1011.02
2023-02-19T04:24:01.336Z,1011.07
2023-02-19T04:25:01.468Z,1011.01
2023-02-19T04:26:01.656Z,1011.03
2023-02-19T04:27:01.790Z,1011.03
2023-02-19T04:28:01.930Z,1011.09
2023-02-19T04:29:02.048Z,1011.06
2023-02-19T04:30:02.270Z,1011.07
2023-02-19T04:31:02.448Z,1011.10
2023-02-19T04:32:02.545Z,1011.12
2023-02-19T04:33:02.689Z,1011.08
2023-02-19T04:34:02.796Z,1011.04
2023-02-19T04:35:02.926Z,1011.13
2023-02-19T04:36:03.065Z,1011.06
2023-02-19T04:37:03.190Z,1011.20
2023-02-19T04:38:03.340Z,1011.16
2023-02-19T04:39:03.466Z,1011.18
2023-02-19T04:40:03.577Z,1011.23
2023-02-19T04:41:03.719Z,1011.25
2023-02-19T04:42:03.840Z,1011.31
2023-02-19T04:43:03.980Z,1011.29
2023-02-19T04:44:04.121Z,1011.29
2023-02-19T04:45:04.261Z,1011.24
2023-02-19T04:46:04.500Z,1011.26
2023-02-19T04:47:04.592Z,1011.28
2023-02-19T04:48:04.728Z,1011.36
2023-02-19T04:49:04.860Z,1011.27
2023-02-19T04:50:04.985Z,1011.39
2023-02-19T04:51:05.118Z,1011.35
2023-02-19T04:52:05.281Z,1011.41
2023-02-19T04:53:05.437Z,1011.36
2023-02-19T04:54:05.578Z,1011.34
2023-02-19T04:55:05.709Z,1011.40
2023-02-19T04:56:05.846Z,1011.43
2023-02-19T04:57:05.973Z,1011.41
2023-02-19T04:58:06.081Z,1011.44
2023-02-19T04:59:06.198Z,1011.40
2023-02-19T05:00:06.328Z,1011.37
2023-02-19T05:01:06.513Z,1011.36
2023-02-19T05:02:06.615Z,1011.40
2023-02-19T05:03:06.740Z,1011.44
2023-02-19T05:04:06.878Z,1011.38
2023-02-19T05:05:07.029Z,1011.43
2023-02-19T05:06:07.161Z,1011.39
2023-02-19T05:07:07.282Z,1011.44
2023-02-19T05:08:07.403Z,1011.41
2023-02-19T05:09:07.532Z,1011.50
2023-02-19T05:10:07.656Z,1011.48
2023-02-19T05:11:08.041Z,1011.51
2023-02-19T05:12:07.938Z,1011.48
2023-02-19T05:13:08.066Z,1011.49
2023-02-19T05:14:08.213Z,1011.53
2023-02-19T05:15:08.357Z,1011.55
2023-02-19T05:16:08.506Z,1011.53
2023-02-19T05:17:08.604Z,1011.61
2023-02-19T05:18:08.733Z,1011.64
2023-02-19T05:19:08.859Z,1011.70
2023-02-19T05:20:08.976Z,1011.67
2023-02-19T05:21:09.486Z,1011.67
2023-02-19T05:22:09.301Z,1011.75
2023-02-19T05:23:09.440Z,1011.64
2023-02-19T05:24:09.581Z,1011.68
2023-02-19T05:25:09.708Z,1011.71
2023-02-19T05:26:09.834Z,1011.70
2023-02-19T05:27:09.955Z,1011.72
2023-02-19T05:28:10.076Z,1011.79
2023-02-19T05:29:10.239Z,1011.82
2023-02-19T05:30:10.377Z,1011.74
2023-02-19T05:31:10.829Z,1011.80
2023-02-19T05:32:10.682Z,1011.79
2023-02-19T05:33:10.757Z,1011.83
2023-02-19T05:34:10.892Z,1011.78
2023-02-19T05:35:11.032Z,1011.84
2023-02-19T05:36:11.179Z,1011.81
2023-02-19T05:37:11.303Z,1011.76
2023-02-19T05:38:11.425Z,1011.84
2023-02-19T05:39:11.566Z,1011.83
2023-02-19T05:40:11.736Z,1011.86
2023-02-19T05:41:12.329Z,1011.83
2023-02-19T05:42:11.984Z,1011.90
2023-02-19T05:43:12.119Z,1011.94
2023-02-19T05:44:12.264Z,1011.97
2023-02-19T05:45:12.413Z,1011.91
2023-02-19T05:46:12.627Z,1011.87
2023-02-19T05:47:12.717Z,1011.95
2023-02-19T05:48:12.866Z,1011.92
2023-02-19T05:49:13.005Z,1011.94
2023-02-19T05:50:13.126Z,1011.92
2023-02-19T05:51:13.270Z,1011.93
2023-02-19T05:52:13.414Z,1011.98
2023-02-19T05:53:13.554Z,1011.95
2023-02-19T05:54:13.704Z,1012.00
2023-02-19T05:55:13.821Z,1011.95
2023-02-19T05:56:13.946Z,1011.93
2023-02-19T05:57:14.075Z,1012.00
2023-02-19T05:58:14.225Z,1012.00
2023-02-19T05:59:14.373Z,1012.02
2023-02-19T06:00:14.502Z,1012.04
2023-02-19T06:01:14.634Z,1012.02
2023-02-19T06:02:14.802Z,1012.04
2023-02-19T06:03:14.954Z,1012.02
2023-02-19T06:04:15.078Z,1012.09
2023-02-19T06:05:15.196Z,1012.06
2023-02-19T06:06:15.316Z,1012.10
2023-02-19T06:07:15.441Z,1012.06
2023-02-19T06:08:15.585Z,1012.04
2023-02-19T06:09:15.721Z,1012.09
2023-02-19T06:10:15.824Z,1012.08
2023-02-19T06:11:15.972Z,1012.08
2023-02-19T06:12:16.083Z,1012.06
2023-02-19T06:13:17.789Z,1012.08
2023-02-19T06:14:16.310Z,1012.12
2023-02-19T06:15:16.432Z,1012.19
2023-02-19T06:16:16.610Z,1012.13
2023-02-19T06:17:16.684Z,1012.13
2023-02-19T06:18:16.882Z,1012.20
2023-02-19T06:19:16.946Z,1012.20
2023-02-19T06:20:17.071Z,1012.11
2023-02-19T06:21:17.212Z,1012.19
2023-02-19T06:22:17.359Z,1012.24
2023-02-19T06:23:17.492Z,1012.24
2023-02-19T06:24:17.643Z,1012.20
2023-02-19T06:25:17.781Z,1012.20
2023-02-19T06:26:17.955Z,1012.17
2023-02-19T06:27:18.081Z,1012.24
2023-02-19T06:28:18.234Z,1012.24
2023-02-19T06:29:18.374Z,1012.21
2023-02-19T06:30:18.554Z,1012.28
2023-02-19T06:31:18.685Z,1012.29
2023-02-19T06:32:18.900Z,1012.34
2023-02-19T06:33:18.965Z,1012.27
2023-02-19T06:34:19.052Z,1012.36
2023-02-19T06:35:19.193Z,1012.28
2023-02-19T06:36:19.348Z,1012.32
2023-02-19T06:37:19.474Z,1012.30
2023-02-19T06:38:19.599Z,1012.35
2023-02-19T06:39:19.713Z,1012.33
2023-02-19T06:40:19.858Z,1012.39
2023-02-19T06:41:20.017Z,1012.38
2023-02-19T06:42:20.133Z,1012.39
2023-02-19T06:43:20.247Z,1012.45
2023-02-19T06:44:20.388Z,1012.49
2023-02-19T06:45:20.552Z,1012.57
2023-02-19T06:46:20.616Z,1012.53
2023-02-19T06:47:20.743Z,1012.57
2023-02-19T06:48:20.866Z,1012.63
2023-02-19T06:49:20.997Z,1012.65
2023-02-19T06:50:21.149Z,1012.62
2023-02-19T06:51:21.285Z,1012.70
2023-02-19T06:52:21.404Z,1012.75
2023-02-19T06:53:21.537Z,1012.80
2023-02-19T06:54:21.671Z,1012.75
2023-02-19T06:55:21.806Z,1012.76
2023-02-19T06:56:21.961Z,1012.77
2023-02-19T06:57:22.073Z,1012.82
2023-02-19T06:58:22.217Z,1012.86
2023-02-19T06:59:22.375Z,1012.88
2023-02-19T07:00:22.506Z,1012.91
2023-02-19T07:01:22.650Z,1012.93
2023-02-19T07:02:22.830Z,1012.99
2023-02-19T07:03:22.985Z,1013.03
2023-02-19T07:04:23.160Z,1013.03
2023-02-19T07:05:23.293Z,1013.07
2023-02-19T07:06:23.428Z,1013.18
2023-02-19T07:07:23.562Z,1013.19
2023-02-19T07:08:23.707Z,1013.17
2023-02-19T07:09:23.818Z,1013.15
2023-02-19T07:10:23.953Z,1013.17
2023-02-19T07:11:24.082Z,1013.24
2023-02-19T07:12:24.200Z,1013.19
2023-02-19T07:13:24.341Z,1013.24
2023-02-19T07:14:24.499Z,1013.24
2023-02-19T07:15:24.651Z,1013.26
2023-02-19T07:16:24.865Z,1013.33
2023-02-19T07:17:25.686Z,1013.25
2023-02-19T07:18:25.059Z,1013.24
2023-02-19T07:19:25.219Z,1013.23
2023-02-19T07:20:25.338Z,1013.20
2023-02-19T07:21:25.468Z,1013.31
2023-02-19T07:22:25.599Z,1013.33
2023-02-19T07:23:25.838Z,1013.30
2023-02-19T07:24:25.904Z,1013.31
2023-02-19T07:25:26.061Z,1013.40
2023-02-19T07:26:26.155Z,1013.45
2023-02-19T07:27:26.266Z,1013.45
2023-02-19T07:28:26.429Z,1013.43
2023-02-19T07:29:26.564Z,1013.42
2023-02-19T07:30:26.760Z,1013.50
2023-02-19T07:31:26.990Z,1013.46
2023-02-19T07:32:26.973Z,1013.45
2023-02-19T07:33:27.098Z,1013.49
2023-02-19T07:34:27.185Z,1013.46
2023-02-19T07:35:27.332Z,1013.52
2023-02-19T07:36:27.451Z,1013.51
2023-02-19T07:37:27.564Z,1013.57
2023-02-19T07:38:27.743Z,1013.54
2023-02-19T07:39:27.869Z,1013.59
2023-02-19T07:40:28.090Z,1013.59
2023-02-19T07:41:28.199Z,1013.58
2023-02-19T07:42:28.325Z,1013.60
2023-02-19T07:43:28.458Z,1013.62
2023-02-19T07:44:28.607Z,1013.69
2023-02-19T07:45:28.788Z,1013.61
2023-02-19T07:46:28.920Z,1013.62
2023-02-19T07:47:29.059Z,1013.61
2023-02-19T07:48:29.208Z,1013.63
2023-02-19T07:49:29.384Z,1013.71
2023-02-19T07:50:29.526Z,1013.74
2023-02-19T07:51:29.673Z,1013.70
2023-02-19T07:52:29.766Z,1013.73
2023-02-19T07:53:29.899Z,1013.70
2023-02-19T07:54:30.040Z,1013.72
2023-02-19T07:55:30.137Z,1013.78
2023-02-19T07:56:30.270Z,1013.74
2023-02-19T07:57:30.397Z,1013.72
2023-02-19T07:58:30.544Z,1013.78
2023-02-19T07:59:30.691Z,1013.82
2023-02-19T08:00:30.816Z,1013.88
2023-02-19T08:01:31.021Z,1013.81
2023-02-19T08:02:31.072Z,1013.87
2023-02-19T08:03:31.258Z,1013.94
2023-02-19T08:04:31.300Z,1013.93
2023-02-19T08:05:31.450Z,1013.88
2023-02-19T08:06:31.561Z,1013.99
2023-02-19T08:07:31.650Z,1014.00
2023-02-19T08:08:31.787Z,1014.07
2023-02-19T08:09:31.919Z,1014.00
2023-02-19T08:10:32.060Z,1014.03
2023-02-19T08:11:32.229Z,1013.95
2023-02-19T08:12:32.347Z,1014.03
2023-02-19T08:13:32.478Z,1014.04
2023-02-19T08:14:32.609Z,1014.00
2023-02-19T08:15:32.762Z,1014.02
2023-02-19T08:16:42.558Z,1014.02
2023-02-19T08:17:34.067Z,1014.05
2023-02-19T08:18:33.199Z,1014.01
2023-02-19T08:19:33.365Z,1014.05
2023-02-19T08:20:33.487Z,1014.01
2023-02-19T08:21:34.524Z,1014.05
2023-02-19T08:22:33.725Z,1014.00
2023-02-19T08:23:33.860Z,1014.12
2023-02-19T08:24:34.026Z,1014.00
2023-02-19T08:25:34.146Z,1014.01
2023-02-19T08:26:34.295Z,1014.10
2023-02-19T08:27:34.456Z,1014.09
2023-02-19T08:28:34.856Z,1014.11
2023-02-19T08:29:34.777Z,1014.11
2023-02-19T08:30:35.008Z,1014.06
2023-02-19T08:31:35.116Z,1014.04
2023-02-19T08:32:35.192Z,1014.10
2023-02-19T08:33:35.332Z,1014.11
2023-02-19T08:34:35.489Z,1014.10
2023-02-19T08:35:35.628Z,1014.14
2023-02-19T08:36:35.765Z,1014.13
2023-02-19T08:37:35.865Z,1014.12
2023-02-19T08:38:35.995Z,1014.12
2023-02-19T08:39:36.132Z,1014.13
2023-02-19T08:40:36.314Z,1014.18
2023-02-19T08:41:38.993Z,1014.13
2023-02-19T08:42:36.565Z,1014.18
2023-02-19T08:43:36.697Z,1014.22
2023-02-19T08:44:36.826Z,1014.29
2023-02-19T08:45:37.014Z,1014.26
2023-02-19T08:46:37.156Z,1014.21
2023-02-19T08:47:37.290Z,1014.20
2023-02-19T08:48:37.420Z,1014.25
2023-02-19T08:49:37.570Z,1014.21
2023-02-19T08:50:37.728Z,1014.32
2023-02-19T08:51:37.852Z,1014.29
2023-02-19T08:52:38.008Z,1014.38
2023-02-19T08:53:38.140Z,1014.29
2023-02-19T08:54:38.279Z,1014.41
2023-02-19T08:55:38.431Z,1014.45
2023-02-19T08:56:38.581Z,1014.47
2023-02-19T08:57:38.740Z,1014.52
2023-02-19T08:58:38.910Z,1014.48
2023-02-19T08:59:39.040Z,1014.56
2023-02-19T09:00:39.215Z,1014.54
2023-02-19T09:01:39.440Z,1014.49
2023-02-19T09:02:39.469Z,1014.50
2023-02-19T09:03:39.628Z,1014.50
2023-02-19T09:04:39.789Z,1014.57
2023-02-19T09:05:39.939Z,1014.52
2023-02-19T09:06:40.189Z,1014.54
2023-02-19T09:07:40.178Z,1014.62
2023-02-19T09:08:40.316Z,1014.58
2023-02-19T09:09:40.453Z,1014.60
2023-02-19T09:10:40.600Z,1014.63
2023-02-19T09:11:40.750Z,1014.65
2023-02-19T09:12:40.889Z,1014.63
2023-02-19T09:13:41.042Z,1014.67
2023-02-19T09:14:41.189Z,1014.64
2023-02-19T09:15:41.353Z,1014.68
2023-02-19T09:16:41.637Z,1014.68
2023-02-19T09:17:41.607Z,1014.71
2023-02-19T09:18:41.760Z,1014.71
2023-02-19T09:19:41.915Z,1014.74
2023-02-19T09:20:42.038Z,1014.79
2023-02-19T09:21:42.188Z,1014.84
2023-02-19T09:22:42.290Z,1014.86
2023-02-19T09:23:42.437Z,1014.87
2023-02-19T09:24:42.589Z,1014.88
2023-02-19T09:25:42.737Z,1014.88
2023-02-19T09:26:42.846Z,1014.96
2023-02-19T09:27:43.012Z,1015.00
2023-02-19T09:28:43.178Z,1015.04
2023-02-19T09:29:43.320Z,1015.07
2023-02-19T09:30:43.498Z,1015.06
2023-02-19T09:31:43.725Z,1015.15
2023-02-19T09:32:43.773Z,1015.17
2023-02-19T09:33:43.872Z,1015.14
2023-02-19T09:34:44.017Z,1015.17
2023-02-19T09:35:44.161Z,1015.10
2023-02-19T09:36:44.300Z,1015.16
2023-02-19T09:37:44.461Z,1015.18
2023-02-19T09:38:44.599Z,1015.32
2023-02-19T09:39:44.748Z,1015.34
2023-02-19T09:40:44.892Z,1015.31
2023-02-19T09:41:45.045Z,1015.33
2023-02-19T09:42:45.183Z,1015.35
2023-02-19T09:43:45.381Z,1015.45
2023-02-19T09:44:45.488Z,1015.41
2023-02-19T09:45:45.609Z,1015.47
2023-02-19T09:46:45.731Z,1015.52
2023-02-19T09:47:45.853Z,1015.48
2023-02-19T09:48:46.027Z,1015.50
2023-02-19T09:49:46.151Z,1015.53
2023-02-19T09:50:46.651Z,1015.57
2023-02-19T09:51:46.401Z,1015.61
2023-02-19T09:52:46.541Z,1015.67
2023-02-19T09:53:46.649Z,1015.64
2023-02-19T09:54:46.748Z,1015.72
2023-02-19T09:55:46.878Z,1015.75
2023-02-19T09:56:47.008Z,1015.78
2023-02-19T09:57:47.169Z,1015.83
2023-02-19T09:58:47.324Z,1015.88
2023-02-19T09:59:47.455Z,1015.89
2023-02-19T10:00:47.597Z,1015.91
2023-02-19T10:01:47.880Z,1015.99
2023-02-19T10:02:47.925Z,1015.98
2023-02-19T10:03:48.135Z,1015.96
2023-02-19T10:04:48.240Z,1015.95
2023-02-19T10:05:48.289Z,1015.99
2023-02-19T10:06:48.427Z,1016.05
2023-02-19T10:07:48.586Z,1016.12
2023-02-19T10:08:48.723Z,1016.22
2023-02-19T10:09:48.876Z,1016.20
2023-02-19T10:10:49.036Z,1016.24
2023-02-19T10:11:49.176Z,1016.24
2023-02-19T10:12:49.303Z,1016.18
2023-02-19T10:13:49.423Z,1016.18
2023-02-19T10:14:49.584Z,1016.28
2023-02-19T10:15:49.850Z,1016.28
2023-02-19T10:16:49.893Z,1016.28
2023-02-19T10:17:50.024Z,1016.28
2023-02-19T10:18:50.163Z,1016.32
2023-02-19T10:19:50.280Z,1016.39
2023-02-19T10:20:50.428Z,1016.44
2023-02-19T10:21:50.650Z,1016.43
2023-02-19T10:22:50.682Z,1016.46
2023-02-19T10:23:50.834Z,1016.50
2023-02-19T10:24:50.992Z,1016.51
2023-02-19T10:25:51.144Z,1016.53
2023-02-19T10:26:51.955Z,1016.40
2023-02-19T10:27:51.386Z,1016.33
2023-02-19T10:28:51.521Z,1016.26
2023-02-19T10:29:51.672Z,1016.26
2023-02-19T10:30:51.880Z,1016.32
2023-02-19T10:31:52.029Z,1016.42
2023-02-19T10:32:52.122Z,1016.47
2023-02-19T10:33:52.219Z,1016.48
2023-02-19T10:34:52.384Z,1016.58
2023-02-19T10:35:52.554Z,1016.58
2023-02-19T10:36:52.673Z,1016.62
2023-02-19T10:37:52.802Z,1016.48
2023-02-19T10:38:52.943Z,1016.51
2023-02-19T10:39:53.105Z,1016.48
2023-02-19T10:40:53.242Z,1016.55
2023-02-19T10:41:53.386Z,1016.61
2023-02-19T10:42:53.544Z,1016.65
2023-02-19T10:43:53.707Z,1016.76
2023-02-19T10:44:53.852Z,1016.82
2023-02-19T10:45:54.024Z,1016.92
2023-02-19T10:46:54.153Z,1016.91
2023-02-19T10:47:54.284Z,1016.99
2023-02-19T10:48:54.416Z,1017.04
2023-02-19T10:49:54.538Z,1016.88
2023-02-19T10:50:54.677Z,1016.82
2023-02-19T10:51:54.842Z,1016.85
2023-02-19T10:52:54.992Z,1016.91
2023-02-19T10:53:55.120Z,1016.94
2023-02-19T10:54:55.268Z,1016.93
2023-02-19T10:55:55.362Z,1016.93
2023-02-19T10:56:55.540Z,1016.89
2023-02-19T10:57:55.720Z,1016.98
2023-02-19T10:58:55.823Z,1016.95
2023-02-19T10:59:55.966Z,1017.02
2023-02-19T11:00:56.140Z,1016.96
2023-02-19T11:01:56.344Z,1017.03
2023-02-19T11:02:56.423Z,1017.04
2023-02-19T11:03:56.551Z,1017.09
2023-02-19T11:04:56.689Z,1017.08
2023-02-19T11:05:56.855Z,1017.08
2023-02-19T11:06:57.009Z,1017.04
2023-02-19T11:07:57.230Z,1017.01
2023-02-19T11:08:57.266Z,1017.01
2023-02-19T11:09:57.423Z,1017.01
2023-02-19T11:10:57.559Z,1017.05
2023-02-19T11:11:57.698Z,1017.04
2023-02-19T11:12:57.849Z,1017.06
2023-02-19T11:13:58.050Z,1017.05
2023-02-19T11:14:58.117Z,1017.01
2023-02-19T11:15:58.273Z,1017.00
2023-02-19T11:16:58.416Z,1017.11
2023-02-19T11:17:58.479Z,1017.09
2023-02-19T11:18:58.656Z,1017.09
2023-02-19T11:19:58.798Z,1017.13
2023-02-19T11:20:58.932Z,1017.12
2023-02-19T11:21:59.066Z,1017.16
2023-02-19T11:22:59.809Z,1017.14
2023-02-19T11:23:59.301Z,1017.20
2023-02-19T11:24:59.598Z,1017.19
2023-02-19T11:25:59.586Z,1017.10
2023-02-19T11:26:59.707Z,1017.13
2023-02-19T11:27:59.868Z,1017.16
2023-02-19T11:29:00.028Z,1017.09
2023-02-19T11:30:00.299Z,1017.10
2023-02-19T11:31:00.374Z,1017.11
2023-02-19T11:32:00.542Z,1017.13
2023-02-19T11:33:00.588Z,1017.10
2023-02-19T11:34:00.756Z,1017.06
2023-02-19T11:35:00.899Z,1017.00
2023-02-19T11:36:01.058Z,1016.98
2023-02-19T11:37:01.201Z,1016.94
2023-02-19T11:38:01.366Z,1016.96
2023-02-19T11:39:01.543Z,1016.95
2023-02-19T11:40:01.716Z,1017.02
2023-02-19T11:41:02.593Z,1017.04
2023-02-19T11:42:02.036Z,1017.01
2023-02-19T11:43:02.200Z,1016.91
2023-02-19T11:44:02.281Z,1016.89
2023-02-19T11:45:02.460Z,1016.91
2023-02-19T11:46:02.604Z,1016.94
2023-02-19T11:47:02.762Z,1016.95
2023-02-19T11:48:02.916Z,1016.94
2023-02-19T11:49:03.083Z,1016.97
2023-02-19T11:50:03.178Z,1016.95
2023-02-19T11:51:03.299Z,1016.99
2023-02-19T11:52:03.442Z,1016.90
2023-02-19T11:53:03.611Z,1016.91
2023-02-19T11:54:03.733Z,1016.85
2023-02-19T11:55:03.890Z,1016.82
2023-02-19T11:56:03.983Z,1016.84
2023-02-19T11:57:04.120Z,1016.86
2023-02-19T11:58:04.261Z,1016.86
2023-02-19T11:59:04.430Z,1016.88
2023-02-19T12:00:04.549Z,1016.86
2023-02-19T12:01:04.714Z,1016.96
2023-02-19T12:02:04.941Z,1016.96
2023-02-19T12:03:05.002Z,1017.00
2023-02-19T12:04:05.159Z,1017.05
2023-02-19T12:05:05.361Z,1016.93
2023-02-19T12:06:05.424Z,1017.02
2023-02-19T12:07:05.578Z,1017.08